Time;durP1;ratioP1;P1;durP2;ratioP2;P2;SDS_P1;SDS_P2;PMS_P1;PMS_P2;Temp;Humidity;BMP_temperature;BMP_pressure;BME280_temperature;BME280_humidity;BME280_pressure;Samples;Min_cycle;Max_cycle;Signal;HPM_P1;HPM_P2
2023/03/18 00:00:33;;;;;;;7.90;3.75;;;;;;;;;;5838445;24;20022;-85
2023/03/18 00:02:58;;;;;;;8.48;3.90;;;;;;;;;;5841048;24;20046;-84
2023/03/18 00:05:24;;;;;;;10.07;4.05;;;;;;;;;;5844714;24;20045;-85
2023/03/18 00:07:50;;;;;;;9.13;4.40;;;;;;;;;;5842998;24;20061;-85
2023/03/18 00:10:15;;;;;;;7.95;4.40;;;;;;;;;;5866120;24;20046;-83
2023/03/18 00:12:42;;;;;;;8.63;3.90;;;;;;;;;;5846911;24;20026;-84
2023/03/18 00:15:09;;;;;;;9.25;4.13;;;;;;;;;;5864751;24;20037;-85
2023/03/18 00:17:36;;;;;;;7.07;3.63;;;;;;;;;;5840489;24;20030;-85
2023/03/18 00:20:05;;;;;;;8.18;4.05;;;;;;;;;;5822855;24;20092;-85
2023/03/18 00:22:33;;;;;;;7.68;4.25;;;;;;;;;;5864563;24;20379;-86
2023/03/18 00:24:59;;;;;;;8.57;3.75;;;;;;;;;;5966214;23;20028;-85
2023/03/18 00:27:25;;;;;;;8.45;4.22;;;;;;;;;;6004698;23;20485;-84
2023/03/18 00:29:50;;;;;;;8.55;4.13;;;;;;;;;;6006377;23;20015;-85
2023/03/18 00:32:16;;;;;;;7.30;4.00;;;;;;;;;;6006493;23;20013;-84
2023/03/18 00:34:41;;;;;;;8.70;4.28;;;;;;;;;;6121590;23;20394;-85
2023/03/18 00:37:07;;;;;;;6.93;3.75;;;;;;;;;;6121448;23;20149;-85
2023/03/18 00:39:32;;;;;;;8.32;3.80;;;;;;;;;;6121260;23;20017;-86
2023/03/18 00:42:06;;;;;;;8.77;4.03;;;;;;;;;;6096660;23;20017;-85
2023/03/18 00:44:32;;;;;;;8.77;3.90;;;;;;;;;;6122183;23;20021;-85
2023/03/18 00:46:57;;;;;;;8.05;3.92;;;;;;;;;;6120732;23;20021;-84
2023/03/18 00:49:22;;;;;;;8.65;4.07;;;;;;;;;;6148575;23;20010;-85
2023/03/18 00:51:48;;;;;;;7.72;3.78;;;;;;;;;;6121579;23;20017;-86
2023/03/18 00:54:17;;;;;;;6.72;3.65;;;;;;;;;;6121420;23;20097;-85
2023/03/18 00:56:42;;;;;;;7.35;3.70;;;;;;;;;;6120622;23;20347;-85
2023/03/18 00:59:07;;;;;;;6.53;3.55;;;;;;;;;;6121123;23;20021;-85
2023/03/18 01:01:33;;;;;;;9.32;4.07;;;;;;;;;;6119401;23;20017;-85
2023/03/18 01:03:59;;;;;;;8.95;4.03;;;;;;;;;;6096250;23;20352;-85
2023/03/18 01:06:27;;;;;;;6.47;3.63;;;;;;;;;;6146261;23;20013;-85
2023/03/18 01:08:52;;;;;;;7.45;3.65;;;;;;;;;;6096415;23;20013;-85
2023/03/18 01:11:18;;;;;;;5.90;3.47;;;;;;;;;;6146297;23;20277;-85
2023/03/18 01:13:44;;;;;;;7.22;3.78;;;;;;;;;;6120688;23;20021;-85
2023/03/18 01:16:10;;;;;;;8.35;3.85;;;;;;;;;;6120239;23;20100;-85
2023/03/18 01:18:36;;;;;;;7.30;3.90;;;;;;;;;;6120446;23;20031;-85
2023/03/18 01:21:02;;;;;;;8.43;3.60;;;;;;;;;;6121617;23;20018;-84
2023/03/18 01:23:29;;;;;;;8.23;3.60;;;;;;;;;;6121782;23;20013;-85
2023/03/18 01:25:54;;;;;;;7.75;3.80;;;;;;;;;;6121238;23;20507;-83
2023/03/18 01:28:21;;;;;;;9.88;3.67;;;;;;;;;;6120731;23;20020;-85
2023/03/18 01:30:47;;;;;;;7.35;3.50;;;;;;;;;;6119743;23;20351;-85
2023/03/18 01:33:14;;;;;;;7.72;3.53;;;;;;;;;;6095254;23;20021;-85
2023/03/18 01:35:40;;;;;;;7.20;3.75;;;;;;;;;;6094917;23;20339;-85
2023/03/18 01:38:05;;;;;;;6.28;3.40;;;;;;;;;;6119832;23;20025;-85
2023/03/18 01:40:36;;;;;;;7.90;4.10;;;;;;;;;;6146365;23;20021;-85
2023/03/18 01:43:18;;;;;;;6.38;3.55;;;;;;;;;;6119518;23;20471;-85
2023/03/18 01:45:47;;;;;;;7.80;3.58;;;;;;;;;;6119608;23;20153;-85
2023/03/18 01:48:16;;;;;;;7.03;3.75;;;;;;;;;;6083764;23;20112;-86
2023/03/18 01:50:43;;;;;;;7.25;3.42;;;;;;;;;;6145782;23;20009;-85
2023/03/18 01:53:11;;;;;;;6.20;3.55;;;;;;;;;;6095779;23;20020;-85
2023/03/18 01:55:38;;;;;;;21.05;4.07;;;;;;;;;;6095654;23;20013;-85
2023/03/18 01:58:10;;;;;;;16.95;3.50;;;;;;;;;;6121517;23;20040;-85
2023/03/18 02:00:38;;;;;;;15.35;3.97;;;;;;;;;;6120436;23;20024;-85
2023/03/18 02:03:05;;;;;;;14.65;3.47;;;;;;;;;;6119854;23;20096;-84
2023/03/18 02:05:30;;;;;;;7.45;3.05;;;;;;;;;;6119526;23;20025;-85
2023/03/18 02:07:56;;;;;;;8.93;3.13;;;;;;;;;;6119094;23;20013;-84
2023/03/18 02:10:27;;;;;;;7.05;2.53;;;;;;;;;;6144844;23;20489;-84
2023/03/18 02:13:03;;;;;;;7.15;2.88;;;;;;;;;;6120139;23;20021;-84
2023/03/18 02:15:32;;;;;;;6.25;2.30;;;;;;;;;;6094216;23;20044;-84
2023/03/18 02:18:06;;;;;;;7.53;2.97;;;;;;;;;;6121240;23;20017;-85
2023/03/18 02:20:54;;;;;;;5.25;2.10;;;;;;;;;;6120377;23;20017;-87
2023/03/18 02:23:45;;;;;;;5.72;2.40;;;;;;;;;;6096280;23;20017;-87
2023/03/18 02:26:36;;;;;;;4.75;2.15;;;;;;;;;;6144267;23;20036;-87
2023/03/18 02:29:03;;;;;;;6.85;2.75;;;;;;;;;;6095698;23;20013;-86
2023/03/18 02:31:30;;;;;;;5.75;2.70;;;;;;;;;;6096554;23;20167;-86
2023/03/18 02:33:57;;;;;;;5.93;2.67;;;;;;;;;;6095912;23;20398;-86
2023/03/18 02:36:28;;;;;;;4.30;2.50;;;;;;;;;;6095405;23;20356;-85
2023/03/18 02:38:55;;;;;;;4.97;2.35;;;;;;;;;;6096419;23;20474;-85
2023/03/18 02:41:24;;;;;;;4.53;2.13;;;;;;;;;;6144882;23;20551;-84
2023/03/18 02:43:50;;;;;;;4.50;2.30;;;;;;;;;;6097067;23;20014;-85
2023/03/18 02:46:37;;;;;;;6.35;2.67;;;;;;;;;;6095150;23;20013;-85
2023/03/18 02:49:03;;;;;;;5.65;2.40;;;;;;;;;;6145608;23;20021;-85
2023/03/18 02:51:29;;;;;;;5.68;2.20;;;;;;;;;;6096149;23;20010;-85
2023/03/18 02:54:00;;;;;;;6.43;2.65;;;;;;;;;;6149434;23;20076;-84
2023/03/18 02:56:25;;;;;;;5.93;2.25;;;;;;;;;;6100140;23;20018;-85
2023/03/18 02:58:51;;;;;;;5.07;2.42;;;;;;;;;;6103232;23;20031;-85
2023/03/18 03:01:18;;;;;;;5.90;2.65;;;;;;;;;;6150700;23;20025;-85
2023/03/18 03:03:43;;;;;;;4.53;2.13;;;;;;;;;;6121554;23;20017;-86
2023/03/18 03:06:09;;;;;;;9.82;2.55;;;;;;;;;;6122518;23;20045;-85
2023/03/18 03:08:36;;;;;;;5.82;2.83;;;;;;;;;;6095220;23;20456;-85
2023/03/18 03:11:01;;;;;;;4.97;2.42;;;;;;;;;;6096357;23;20017;-84
2023/03/18 03:13:27;;;;;;;5.28;2.33;;;;;;;;;;6119927;23;20052;-85
2023/03/18 03:15:53;;;;;;;6.68;2.40;;;;;;;;;;6120713;23;20064;-85
2023/03/18 03:18:19;;;;;;;5.63;2.50;;;;;;;;;;6096353;23;20083;-85
2023/03/18 03:20:45;;;;;;;5.18;2.05;;;;;;;;;;6146752;23;20028;-85
2023/03/18 03:23:13;;;;;;;5.50;2.22;;;;;;;;;;6149753;23;20340;-87
2023/03/18 03:25:38;;;;;;;;;;;;;;;;;;6098504;23;20036;-85
2023/03/18 03:28:07;;;;;;;7.05;2.22;;;;;;;;;;6119833;23;19912;-85
2023/03/18 03:30:34;;;;;;;5.05;2.05;;;;;;;;;;6120247;23;20025;-85
2023/03/18 03:33:00;;;;;;;5.13;2.50;;;;;;;;;;6148182;23;20593;-84
2023/03/18 03:35:26;;;;;;;5.47;2.40;;;;;;;;;;6097645;23;20014;-85
2023/03/18 03:37:52;;;;;;;4.55;2.05;;;;;;;;;;6122515;23;20037;-85
2023/03/18 03:40:19;;;;;;;5.45;2.70;;;;;;;;;;6121920;23;20028;-84
2023/03/18 03:42:46;;;;;;;4.43;2.10;;;;;;;;;;6098016;23;21983;-85
2023/03/18 03:45:12;;;;;;;4.33;2.17;;;;;;;;;;6097298;23;20028;-84
2023/03/18 03:47:38;;;;;;;5.68;2.22;;;;;;;;;;6122274;23;20025;-85
2023/03/18 03:50:04;;;;;;;5.22;2.47;;;;;;;;;;6149016;23;20020;-85
2023/03/18 03:52:30;;;;;;;4.60;2.08;;;;;;;;;;6096453;23;20406;-85
2023/03/18 03:54:56;;;;;;;6.38;2.40;;;;;;;;;;6122274;23;20006;-85
2023/03/18 03:57:23;;;;;;;4.63;2.22;;;;;;;;;;6147047;23;20403;-84
2023/03/18 03:59:49;;;;;;;7.90;3.00;;;;;;;;;;6147532;23;20021;-84
2023/03/18 04:02:16;;;;;;;6.20;2.50;;;;;;;;;;6146627;23;20248;-84
2023/03/18 04:04:42;;;;;;;6.35;2.28;;;;;;;;;;6121048;23;20068;-85
2023/03/18 04:07:08;;;;;;;4.00;1.90;;;;;;;;;;6120887;23;20068;-84
2023/03/18 04:09:35;;;;;;;6.38;2.90;;;;;;;;;;6147830;23;20446;-83
2023/03/18 04:12:01;;;;;;;6.97;2.80;;;;;;;;;;6096432;23;20084;-84
2023/03/18 04:14:26;;;;;;;4.57;2.08;;;;;;;;;;6121391;23;20216;-84
2023/03/18 04:16:52;;;;;;;7.60;2.53;;;;;;;;;;6120539;23;20061;-85
2023/03/18 04:19:17;;;;;;;5.28;2.15;;;;;;;;;;6147603;23;20337;-85
2023/03/18 04:21:43;;;;;;;5.22;2.35;;;;;;;;;;6123778;23;20021;-86
2023/03/18 04:24:11;;;;;;;4.72;2.17;;;;;;;;;;6099005;23;20111;-86
2023/03/18 04:26:36;;;;;;;4.97;2.20;;;;;;;;;;6120657;23;20013;-86
2023/03/18 04:29:02;;;;;;;5.03;2.40;;;;;;;;;;6146535;23;20084;-86
2023/03/18 04:31:28;;;;;;;5.40;2.38;;;;;;;;;;6120631;23;20048;-86
2023/03/18 04:33:54;;;;;;;4.72;1.80;;;;;;;;;;6120030;23;20017;-85
2023/03/18 04:36:20;;;;;;;4.95;2.50;;;;;;;;;;6121324;23;20088;-85
2023/03/18 04:38:45;;;;;;;4.88;2.25;;;;;;;;;;6096053;23;20021;-85
2023/03/18 04:41:10;;;;;;;6.00;2.38;;;;;;;;;;6083590;23;20022;-85
2023/03/18 04:43:36;;;;;;;5.22;2.20;;;;;;;;;;6147777;23;20025;-85
2023/03/18 04:46:01;;;;;;;4.40;2.20;;;;;;;;;;6096561;23;20021;-85
2023/03/18 04:48:27;;;;;;;4.25;1.98;;;;;;;;;;6120973;23;20028;-84
2023/03/18 04:50:53;;;;;;;5.05;2.38;;;;;;;;;;6121777;23;20092;-85
2023/03/18 04:53:19;;;;;;;6.03;2.10;;;;;;;;;;6100451;23;20010;-85
2023/03/18 04:55:45;;;;;;;6.90;2.75;;;;;;;;;;6129372;23;20017;-85
2023/03/18 04:58:11;;;;;;;5.95;2.72;;;;;;;;;;6129007;23;20045;-85
2023/03/18 05:00:36;;;;;;;5.50;2.47;;;;;;;;;;6097861;23;20025;-85
2023/03/18 05:03:02;;;;;;;4.90;2.17;;;;;;;;;;6147374;23;20017;-85
2023/03/18 05:05:28;;;;;;;5.65;2.42;;;;;;;;;;6120608;23;20013;-85
2023/03/18 05:07:53;;;;;;;6.95;2.47;;;;;;;;;;6097724;23;20037;-85
2023/03/18 05:10:19;;;;;;;6.30;2.35;;;;;;;;;;6119781;23;20010;-85
2023/03/18 05:12:44;;;;;;;5.43;2.40;;;;;;;;;;6146757;23;20347;-85
2023/03/18 05:15:10;;;;;;;7.15;2.22;;;;;;;;;;6119799;23;20024;-86
2023/03/18 05:17:39;;;;;;;7.53;2.42;;;;;;;;;;6120916;23;20021;-86
2023/03/18 05:20:05;;;;;;;6.57;2.45;;;;;;;;;;6122734;23;20064;-87
2023/03/18 05:22:31;;;;;;;6.05;2.55;;;;;;;;;;6145738;23;20017;-86
2023/03/18 05:24:56;;;;;;;6.25;2.40;;;;;;;;;;6095874;23;20038;-85
2023/03/18 05:27:22;;;;;;;7.60;2.47;;;;;;;;;;6120766;23;20091;-83
2023/03/18 05:29:48;;;;;;;6.38;2.53;;;;;;;;;;6121668;23;20022;-85
2023/03/18 05:32:13;;;;;;;5.97;2.42;;;;;;;;;;6146102;23;20025;-85
2023/03/18 05:34:40;;;;;;;4.57;2.10;;;;;;;;;;6096883;23;20013;-85
2023/03/18 05:37:07;;;;;;;5.57;2.40;;;;;;;;;;6120626;23;20017;-86
2023/03/18 05:39:33;;;;;;;5.93;2.72;;;;;;;;;;6147203;23;20031;-85
2023/03/18 05:41:59;;;;;;;11.50;2.85;;;;;;;;;;6120615;23;20121;-85
2023/03/18 05:44:25;;;;;;;4.63;2.13;;;;;;;;;;6096805;23;20060;-85
2023/03/18 05:46:51;;;;;;;5.55;2.22;;;;;;;;;;6094681;23;20017;-85
2023/03/18 05:49:18;;;;;;;7.45;2.88;;;;;;;;;;6095693;23;20514;-84
2023/03/18 05:51:43;;;;;;;6.75;3.20;;;;;;;;;;6095118;23;20010;-84
2023/03/18 05:54:09;;;;;;;6.68;2.22;;;;;;;;;;6095102;23;20096;-86
2023/03/18 05:56:34;;;;;;;5.90;2.53;;;;;;;;;;6144776;23;20017;-85
2023/03/18 05:59:00;;;;;;;7.55;2.63;;;;;;;;;;6120885;23;20036;-85
2023/03/18 06:01:25;;;;;;;4.72;2.55;;;;;;;;;;6118775;23;20021;-81
2023/03/18 06:03:52;;;;;;;5.97;2.60;;;;;;;;;;6119815;23;20440;-85
2023/03/18 06:06:18;;;;;;;5.97;2.65;;;;;;;;;;6105827;23;20037;-85
2023/03/18 06:08:45;;;;;;;5.90;2.72;;;;;;;;;;6093517;23;20495;-85
2023/03/18 06:11:11;;;;;;;6.60;2.60;;;;;;;;;;6118121;23;20028;-85
2023/03/18 06:13:36;;;;;;;4.85;2.50;;;;;;;;;;6095363;23;20495;-86
2023/03/18 06:16:02;;;;;;;5.85;2.67;;;;;;;;;;6095681;23;20444;-86
2023/03/18 06:18:28;;;;;;;6.13;2.30;;;;;;;;;;6119999;23;20009;-85
2023/03/18 06:20:53;;;;;;;6.80;2.70;;;;;;;;;;6095479;23;20024;-86
2023/03/18 06:23:19;;;;;;;4.97;2.20;;;;;;;;;;6095552;23;20092;-86
2023/03/18 06:25:45;;;;;;;7.15;2.60;;;;;;;;;;6119206;23;20013;-86
2023/03/18 06:28:11;;;;;;;5.53;2.80;;;;;;;;;;6119968;23;20423;-84
2023/03/18 06:30:38;;;;;;;5.35;2.20;;;;;;;;;;6095397;23;20451;-85
2023/03/18 06:33:04;;;;;;;5.22;2.35;;;;;;;;;;6146480;23;20013;-87
2023/03/18 06:35:30;;;;;;;6.05;2.63;;;;;;;;;;6095505;23;20040;-86
2023/03/18 06:37:56;;;;;;;6.32;2.53;;;;;;;;;;6122102;23;20044;-87
2023/03/18 06:40:23;;;;;;;6.15;2.58;;;;;;;;;;6146632;23;20022;-86
2023/03/18 06:42:49;;;;;;;5.47;2.33;;;;;;;;;;6095482;23;20141;-87
2023/03/18 06:45:14;;;;;;;4.82;2.03;;;;;;;;;;6119608;23;20471;-86
2023/03/18 06:47:40;;;;;;;5.45;2.67;;;;;;;;;;6121090;23;20026;-86
2023/03/18 06:50:05;;;;;;;6.47;2.65;;;;;;;;;;6096550;23;20017;-87
2023/03/18 06:52:31;;;;;;;6.32;2.83;;;;;;;;;;6096172;23;20017;-86
2023/03/18 06:54:57;;;;;;;7.32;2.85;;;;;;;;;;6120724;23;20093;-86
2023/03/18 06:57:22;;;;;;;5.65;2.58;;;;;;;;;;6119847;23;20092;-87
2023/03/18 06:59:48;;;;;;;5.00;2.25;;;;;;;;;;6120400;23;20027;-86
2023/03/18 07:02:14;;;;;;;5.00;2.45;;;;;;;;;;6118846;23;20041;-85
2023/03/18 07:04:39;;;;;;;4.93;2.55;;;;;;;;;;6119800;23;20021;-86
2023/03/18 07:07:06;;;;;;;5.60;2.60;;;;;;;;;;6095368;23;20100;-86
2023/03/18 07:09:32;;;;;;;6.63;2.70;;;;;;;;;;6147618;23;20026;-84
2023/03/18 07:11:59;;;;;;;6.70;2.70;;;;;;;;;;6146817;23;20033;-84
2023/03/18 07:14:25;;;;;;;6.45;2.85;;;;;;;;;;6147960;23;20013;-85
2023/03/18 07:16:50;;;;;;;5.18;2.47;;;;;;;;;;6146313;23;20020;-86
2023/03/18 07:19:17;;;;;;;6.85;2.60;;;;;;;;;;6120919;23;20104;-86
2023/03/18 07:21:44;;;;;;;7.00;2.58;;;;;;;;;;6108278;23;20045;-86
2023/03/18 07:24:10;;;;;;;6.30;2.53;;;;;;;;;;6121434;23;20021;-86
2023/03/18 07:26:36;;;;;;;6.80;2.95;;;;;;;;;;6123221;23;20032;-85
2023/03/18 07:29:02;;;;;;;5.32;2.78;;;;;;;;;;6123239;23;20025;-85
2023/03/18 07:31:28;;;;;;;5.35;2.58;;;;;;;;;;6123375;23;20068;-85
2023/03/18 07:33:54;;;;;;;5.55;2.58;;;;;;;;;;6123972;23;20013;-87
2023/03/18 07:36:20;;;;;;;5.68;2.65;;;;;;;;;;6121875;23;20022;-86
2023/03/18 07:38:45;;;;;;;7.47;2.53;;;;;;;;;;6097487;23;20021;-86
2023/03/18 07:41:11;;;;;;;4.57;2.22;;;;;;;;;;6148568;23;20022;-86
2023/03/18 07:43:37;;;;;;;6.47;2.75;;;;;;;;;;6147801;23;20053;-86
2023/03/18 07:46:03;;;;;;;7.32;2.47;;;;;;;;;;6120893;23;20037;-84
2023/03/18 07:48:29;;;;;;;10.38;2.95;;;;;;;;;;6145773;23;20037;-83
2023/03/18 07:50:55;;;;;;;6.82;2.40;;;;;;;;;;6096390;23;20025;-84
2023/03/18 07:53:21;;;;;;;6.13;2.50;;;;;;;;;;6096260;23;20024;-84
2023/03/18 07:55:46;;;;;;;6.25;2.60;;;;;;;;;;6095153;23;20731;-84
2023/03/18 07:58:12;;;;;;;6.03;2.65;;;;;;;;;;6120513;23;20128;-84
2023/03/18 08:00:38;;;;;;;5.82;2.55;;;;;;;;;;6146281;23;20018;-84
2023/03/18 08:03:04;;;;;;;6.43;2.45;;;;;;;;;;6120632;23;20396;-84
2023/03/18 08:05:30;;;;;;;6.68;2.40;;;;;;;;;;6120024;23;20021;-84
2023/03/18 08:07:58;;;;;;;6.20;2.60;;;;;;;;;;6146685;23;20447;-84
2023/03/18 08:10:24;;;;;;;;;;;;;;;;;;6119452;23;20478;-84
2023/03/18 08:12:49;;;;;;;6.53;2.70;;;;;;;;;;6169707;23;19908;-84
2023/03/18 08:15:18;;;;;;;8.45;2.88;;;;;;;;;;6119505;23;20028;-84
2023/03/18 08:17:43;;;;;;;7.80;3.10;;;;;;;;;;6120271;23;20013;-84
2023/03/18 08:20:11;;;;;;;6.95;2.30;;;;;;;;;;6146890;23;20456;-84
2023/03/18 08:22:36;;;;;;;5.97;2.60;;;;;;;;;;6095483;23;20317;-85
2023/03/18 08:25:02;;;;;;;4.78;2.40;;;;;;;;;;6120651;23;20017;-83
2023/03/18 08:27:27;;;;;;;6.07;2.85;;;;;;;;;;6118488;23;20020;-84
2023/03/18 08:29:52;;;;;;;8.07;2.88;;;;;;;;;;6147624;23;20028;-85
2023/03/18 08:32:19;;;;;;;5.22;2.58;;;;;;;;;;6119833;23;20672;-82
2023/03/18 08:34:44;;;;;;;5.20;2.70;;;;;;;;;;6119983;23;20407;-83
2023/03/18 08:37:10;;;;;;;5.35;2.55;;;;;;;;;;6119976;23;20023;-83
2023/03/18 08:39:36;;;;;;;5.93;2.58;;;;;;;;;;6119732;23;20032;-84
2023/03/18 08:42:03;;;;;;;5.65;2.60;;;;;;;;;;6145958;23;20048;-84
2023/03/18 08:44:29;;;;;;;5.53;2.40;;;;;;;;;;6095172;23;20337;-84
2023/03/18 08:46:57;;;;;;;5.28;2.35;;;;;;;;;;6145956;23;20117;-84
2023/03/18 08:49:23;;;;;;;;;;;;;;;;;;6120832;23;20049;-84
2023/03/18 08:51:49;;;;;;;7.47;2.70;;;;;;;;;;6169202;23;20122;-85
2023/03/18 08:54:15;;;;;;;4.60;2.10;;;;;;;;;;6095859;23;20028;-84
2023/03/18 08:56:41;;;;;;;7.40;2.80;;;;;;;;;;6120148;23;20009;-85
2023/03/18 08:59:07;;;;;;;5.18;2.53;;;;;;;;;;6120583;23;20017;-85
2023/03/18 09:01:33;;;;;;;4.82;2.25;;;;;;;;;;6093376;23;20010;-85
2023/03/18 09:03:58;;;;;;;5.25;2.13;;;;;;;;;;6120340;23;20013;-84
2023/03/18 09:06:24;;;;;;;5.57;2.15;;;;;;;;;;6119990;23;20013;-85
2023/03/18 09:08:49;;;;;;;5.82;2.20;;;;;;;;;;6095566;23;20017;-85
2023/03/18 09:11:15;;;;;;;5.43;2.42;;;;;;;;;;6095692;23;20077;-85
2023/03/18 09:13:40;;;;;;;4.57;2.10;;;;;;;;;;6146101;23;20040;-84
2023/03/18 09:16:07;;;;;;;5.13;2.40;;;;;;;;;;6119126;23;20024;-84
2023/03/18 09:18:34;;;;;;;6.03;2.25;;;;;;;;;;6146058;23;20024;-86
2023/03/18 09:21:00;;;;;;;5.93;2.40;;;;;;;;;;6119152;23;20009;-82
2023/03/18 09:23:27;;;;;;;4.65;1.95;;;;;;;;;;6147209;23;20010;-83
2023/03/18 09:25:53;;;;;;;4.78;2.22;;;;;;;;;;6118692;23;20048;-83
2023/03/18 09:28:22;;;;;;;4.50;2.00;;;;;;;;;;6146939;23;20325;-82
2023/03/18 09:30:50;;;;;;;4.10;2.20;;;;;;;;;;6118278;23;20028;-84
2023/03/18 09:33:15;;;;;;;;;;;;;;;;;;6120307;23;20017;-83
2023/03/18 09:35:44;;;;;;;6.05;2.10;;;;;;;;;;6163201;23;20250;-84
2023/03/18 09:38:15;;;;;;;5.82;2.50;;;;;;;;;;6146289;23;20407;-82
2023/03/18 09:41:16;;;;;;;4.22;2.20;;;;;;;;;;6091280;23;20645;-83
2023/03/18 09:43:51;;;;;;;3.88;1.83;;;;;;;;;;6143461;23;20020;-83
2023/03/18 09:46:28;;;;;;;4.50;2.08;;;;;;;;;;6129166;23;20354;-83
2023/03/18 09:49:28;;;;;;;7.10;2.28;;;;;;;;;;6146109;23;20021;-82
2023/03/18 09:52:01;;;;;;;4.78;2.17;;;;;;;;;;6145873;23;20459;-84
2023/03/18 09:54:40;;;;;;;5.75;2.17;;;;;;;;;;6146593;23;20020;-83
2023/03/18 09:57:13;;;;;;;3.65;1.98;;;;;;;;;;6095561;23;20014;-80
2023/03/18 09:59:46;;;;;;;4.60;2.30;;;;;;;;;;6107664;23;20463;-83
2023/03/18 10:02:32;;;;;;;4.15;1.92;;;;;;;;;;6056734;23;20050;-83
2023/03/18 10:05:02;;;;;;;3.97;1.88;;;;;;;;;;6145042;23;20477;-82
2023/03/18 10:07:32;;;;;;;4.20;2.00;;;;;;;;;;6116560;23;20044;-83
2023/03/18 10:10:02;;;;;;;4.43;2.05;;;;;;;;;;6146051;23;20014;-82
2023/03/18 10:12:44;;;;;;;4.20;1.75;;;;;;;;;;6144109;23;20017;-83
2023/03/18 10:15:31;;;;;;;5.57;2.30;;;;;;;;;;6122529;23;20093;-85
2023/03/18 10:18:22;;;;;;;5.75;2.30;;;;;;;;;;6097682;23;20088;-87
2023/03/18 10:21:06;;;;;;;4.55;2.17;;;;;;;;;;6039402;23;20025;-89
2023/03/18 10:27:18;;;;;;;6.03;2.58;;;;;;;;;;6096971;23;20097;-88
2023/03/18 10:30:26;;;;;;;5.32;1.98;;;;;;;;;;6101244;23;20438;-87
2023/03/18 10:33:10;;;;;;;4.65;2.28;;;;;;;;;;6032066;23;20114;-91
2023/03/18 10:35:52;;;;;;;7.03;2.42;;;;;;;;;;6004353;23;20023;-82
2023/03/18 10:38:21;;;;;;;6.00;2.45;;;;;;;;;;6031795;23;20035;-83
2023/03/18 10:40:48;;;;;;;4.82;2.13;;;;;;;;;;6054550;23;20053;-85
2023/03/18 10:43:18;;;;;;;4.20;1.75;;;;;;;;;;6031089;23;20023;-84
2023/03/18 10:45:47;;;;;;;4.07;2.00;;;;;;;;;;6029670;23;20034;-84
2023/03/18 10:48:29;;;;;;;4.32;2.00;;;;;;;;;;6030507;23;20116;-85
2023/03/18 10:51:10;;;;;;;6.05;1.98;;;;;;;;;;6030651;23;20505;-86
2023/03/18 10:53:41;;;;;;;4.07;1.95;;;;;;;;;;6054698;23;20015;-85
2023/03/18 10:56:08;;;;;;;3.40;1.52;;;;;;;;;;6031332;23;20030;-85
2023/03/18 10:58:33;;;;;;;5.63;2.30;;;;;;;;;;6054612;23;20021;-84
2023/03/18 11:00:59;;;;;;;4.22;2.10;;;;;;;;;;6029437;23;20098;-83
2023/03/18 11:03:36;;;;;;;3.75;1.90;;;;;;;;;;6007065;23;20026;-82
2023/03/18 11:06:06;;;;;;;7.15;1.98;;;;;;;;;;6029563;23;20054;-83
2023/03/18 11:08:34;;;;;;;4.00;1.90;;;;;;;;;;6062433;23;20077;-83
2023/03/18 11:11:20;;;;;;;5.03;1.88;;;;;;;;;;6089619;23;20014;-84
2023/03/18 11:13:54;;;;;;;7.78;1.92;;;;;;;;;;6066526;23;20096;-83
2023/03/18 11:16:32;;;;;;;4.82;2.13;;;;;;;;;;6089975;23;20380;-83
2023/03/18 11:18:57;;;;;;;3.80;1.70;;;;;;;;;;6089453;23;20010;-82
2023/03/18 11:21:25;;;;;;;5.63;2.15;;;;;;;;;;6116654;23;20018;-84
2023/03/18 11:24:09;;;;;;;5.10;2.00;;;;;;;;;;6090653;23;20014;-85
2023/03/18 11:26:54;;;;;;;4.28;1.80;;;;;;;;;;6066609;23;20018;-83
2023/03/18 11:29:34;;;;;;;5.97;1.63;;;;;;;;;;6089955;23;20021;-81
2023/03/18 11:32:00;;;;;;;4.43;2.00;;;;;;;;;;6086522;23;20085;-81
2023/03/18 11:34:28;;;;;;;5.55;1.83;;;;;;;;;;6064712;23;20436;-81
2023/03/18 11:37:03;;;;;;;4.10;1.90;;;;;;;;;;6064982;23;20455;-83
2023/03/18 11:39:31;;;;;;;4.00;1.98;;;;;;;;;;6109186;23;20032;-82
2023/03/18 11:41:58;;;;;;;5.00;2.20;;;;;;;;;;6094154;23;20529;-83
2023/03/18 11:44:26;;;;;;;;;;;;;;;;;;6119498;23;20026;-83
2023/03/18 11:47:01;;;;;;;4.55;1.90;;;;;;;;;;6141832;23;19912;-82
2023/03/18 11:49:27;;;;;;;4.93;2.15;;;;;;;;;;6095090;23;20485;-84
2023/03/18 11:51:58;;;;;;;3.17;1.58;;;;;;;;;;6118960;23;20092;-84
2023/03/18 11:55:01;;;;;;;4.28;2.13;;;;;;;;;;6147113;23;20390;-83
2023/03/18 11:57:40;;;;;;;4.47;1.88;;;;;;;;;;6119487;23;20029;-82
2023/03/18 12:00:21;;;;;;;4.15;1.80;;;;;;;;;;6147236;23;20423;-83
2023/03/18 12:02:50;;;;;;;3.88;1.77;;;;;;;;;;6146933;23;20017;-83
2023/03/18 12:05:52;;;;;;;5.75;2.25;;;;;;;;;;6120706;23;20418;-83
2023/03/18 12:08:30;;;;;;;4.93;1.88;;;;;;;;;;6120187;23;20838;-82
2023/03/18 12:11:14;;;;;;;4.22;1.67;;;;;;;;;;6106084;23;20341;-82
2023/03/18 12:13:39;;;;;;;3.63;1.70;;;;;;;;;;6107649;23;20044;-82
2023/03/18 12:16:42;;;;;;;3.90;1.90;;;;;;;;;;6145395;23;20386;-82
2023/03/18 12:19:16;;;;;;;4.85;2.17;;;;;;;;;;6120439;23;20044;-82
2023/03/18 12:22:06;;;;;;;3.45;1.67;;;;;;;;;;6118771;23;20014;-81
2023/03/18 12:24:53;;;;;;;3.85;1.98;;;;;;;;;;6120391;23;20013;-81
2023/03/18 12:27:31;;;;;;;3.85;1.92;;;;;;;;;;6145570;23;20025;-81
2023/03/18 12:29:59;;;;;;;4.25;1.67;;;;;;;;;;6120561;23;20013;-80
2023/03/18 12:32:25;;;;;;;4.07;1.73;;;;;;;;;;6106292;23;20028;-80
2023/03/18 12:35:15;;;;;;;5.20;1.90;;;;;;;;;;6146094;23;20013;-84
2023/03/18 12:38:25;;;;;;;4.05;2.08;;;;;;;;;;6120598;23;20340;-80
2023/03/18 12:41:17;;;;;;;4.00;1.75;;;;;;;;;;6145438;23;20025;-81
2023/03/18 12:44:00;;;;;;;5.88;1.70;;;;;;;;;;6146475;23;20018;-83
2023/03/18 12:46:44;;;;;;;3.42;1.67;;;;;;;;;;6146439;23;20032;-87
2023/03/18 12:49:28;;;;;;;3.45;1.63;;;;;;;;;;6095920;23;20021;-86
2023/03/18 12:52:24;;;;;;;5.43;1.90;;;;;;;;;;6095864;23;20076;-82
2023/03/18 12:55:11;;;;;;;4.17;1.80;;;;;;;;;;6071908;23;20402;-84
2023/03/18 12:57:58;;;;;;;4.72;1.88;;;;;;;;;;6095776;23;20346;-84
2023/03/18 13:00:30;;;;;;;3.70;1.85;;;;;;;;;;6096126;23;20029;-83
2023/03/18 13:03:04;;;;;;;5.05;2.20;;;;;;;;;;6120947;23;20438;-82
2023/03/18 13:05:51;;;;;;;4.40;2.20;;;;;;;;;;6117865;23;20431;-86
2023/03/18 13:08:32;;;;;;;4.65;1.90;;;;;;;;;;6118527;23;20025;-82
2023/03/18 13:11:13;;;;;;;4.78;2.25;;;;;;;;;;6118426;23;20351;-83
2023/03/18 13:13:43;;;;;;;5.13;2.30;;;;;;;;;;6146098;23;20017;-82
2023/03/18 13:16:08;;;;;;;3.85;2.05;;;;;;;;;;6146510;23;20021;-83
2023/03/18 13:18:43;;;;;;;4.43;2.30;;;;;;;;;;6095413;23;20064;-84
2023/03/18 13:21:13;;;;;;;5.00;2.25;;;;;;;;;;6082693;23;20020;-80
2023/03/18 13:24:02;;;;;;;5.28;2.35;;;;;;;;;;6122222;23;20010;-81
2023/03/18 13:26:55;;;;;;;6.72;2.42;;;;;;;;;;6120742;23;20021;-82
2023/03/18 13:29:36;;;;;;;4.28;2.20;;;;;;;;;;6122961;23;20014;-81
2023/03/18 13:32:26;;;;;;;4.65;2.28;;;;;;;;;;6118244;23;20018;-80
2023/03/18 13:34:59;;;;;;;4.50;1.80;;;;;;;;;;6146865;23;20021;-81
2023/03/18 13:37:36;;;;;;;5.28;2.28;;;;;;;;;;6147951;23;20025;-80
2023/03/18 13:40:26;;;;;;;5.85;2.80;;;;;;;;;;6145589;23;20033;-79
2023/03/18 13:42:56;;;;;;;4.43;2.42;;;;;;;;;;6102730;23;20624;-80
2023/03/18 13:45:31;;;;;;;5.35;2.20;;;;;;;;;;6144021;23;20344;-80
2023/03/18 13:48:04;;;;;;;4.70;2.22;;;;;;;;;;6119288;23;20017;-79
2023/03/18 13:50:31;;;;;;;4.35;2.30;;;;;;;;;;6094218;23;20557;-80
2023/03/18 13:52:58;;;;;;;5.53;2.55;;;;;;;;;;6145944;23;20042;-80
2023/03/18 13:55:46;;;;;;;7.70;2.42;;;;;;;;;;6145180;23;20017;-79
2023/03/18 13:58:21;;;;;;;4.38;2.05;;;;;;;;;;6118120;23;20020;-81
2023/03/18 14:00:53;;;;;;;3.67;1.80;;;;;;;;;;6143020;23;20017;-79
2023/03/18 14:03:29;;;;;;;6.25;2.35;;;;;;;;;;6117828;23;20136;-79
2023/03/18 14:06:04;;;;;;;4.00;1.92;;;;;;;;;;6092654;23;20834;-80
2023/03/18 14:08:42;;;;;;;5.70;2.05;;;;;;;;;;6144002;23;20071;-81
2023/03/18 14:11:15;;;;;;;4.35;2.08;;;;;;;;;;6143066;23;20033;-81
2023/03/18 14:14:04;;;;;;;4.28;2.30;;;;;;;;;;6143492;23;20021;-81
2023/03/18 14:16:33;;;;;;;3.42;2.00;;;;;;;;;;6143605;23;20017;-80
2023/03/18 14:19:05;;;;;;;6.38;2.55;;;;;;;;;;6144669;23;20490;-82
2023/03/18 14:21:32;;;;;;;4.22;2.13;;;;;;;;;;6143973;23;20400;-80
2023/03/18 14:24:11;;;;;;;3.83;1.80;;;;;;;;;;6093166;23;20118;-82
2023/03/18 14:26:38;;;;;;;3.30;1.52;;;;;;;;;;6117484;23;20254;-81
2023/03/18 14:29:06;;;;;;;3.97;1.70;;;;;;;;;;6117312;23;20024;-80
2023/03/18 14:31:33;;;;;;;3.85;1.55;;;;;;;;;;6143679;23;20385;-81
2023/03/18 14:34:23;;;;;;;4.95;1.45;;;;;;;;;;6117850;23;20084;-82
2023/03/18 14:36:51;;;;;;;4.57;1.45;;;;;;;;;;6116523;23;20187;-86
2023/03/18 14:39:27;;;;;;;3.30;1.15;;;;;;;;;;6117716;23;20079;-87
2023/03/18 14:41:56;;;;;;;4.28;1.23;;;;;;;;;;6117517;23;20404;-83
2023/03/18 14:44:34;;;;;;;3.20;1.23;;;;;;;;;;6117867;23;20428;-84
2023/03/18 14:47:03;;;;;;;2.70;1.02;;;;;;;;;;6142709;23;20373;-84
2023/03/18 14:49:42;;;;;;;3.47;1.25;;;;;;;;;;6117688;23;20554;-85
2023/03/18 14:52:33;;;;;;;3.28;1.25;;;;;;;;;;6117084;23;20083;-85
2023/03/18 14:55:11;;;;;;;5.55;1.75;;;;;;;;;;6092978;23;20029;-87
2023/03/18 14:57:38;;;;;;;5.47;1.67;;;;;;;;;;6116829;23;20355;-88
2023/03/18 15:00:27;;;;;;;3.50;1.45;;;;;;;;;;6118509;23;20017;-88
2023/03/18 15:03:00;;;;;;;4.63;1.35;;;;;;;;;;6114929;23;20021;-87
2023/03/18 15:05:30;;;;;;;3.47;1.33;;;;;;;;;;6119456;23;20187;-88